sensor_id;sensor_type;location;lat;lon;timestamp;P1;durP1;ratioP1;P2;durP2;ratioP2
15841;SDS011;8021;48.022;11.812;2023-06-26T00:01:01;0.20;;;0.20;;
15841;SDS011;8021;48.022;11.812;2023-06-26T00:03:29;0.13;;;0.13;;
15841;SDS011;8021;48.022;11.812;2023-06-26T00:05:58;0.20;;;0.20;;
15841;SDS011;8021;48.022;11.812;2023-06-26T00:08:27;0.20;;;0.10;;
15841;SDS011;8021;48.022;11.812;2023-06-26T00:10:56;0.17;;;0.10;;
15841;SDS011;8021;48.022;11.812;2023-06-26T00:13:23;0.20;;;0.20;;
15841;SDS011;8021;48.022;11.812;2023-06-26T00:15:51;0.20;;;0.20;;
15841;SDS011;8021;48.022;11.812;2023-06-26T00:18:19;0.20;;;0.20;;
15841;SDS011;8021;48.022;11.812;2023-06-26T00:20:47;0.15;;;0.13;;
15841;SDS011;8021;48.022;11.812;2023-06-26T00:23:15;0.20;;;0.10;;
15841;SDS011;8021;48.022;11.812;2023-06-26T00:25:43;0.30;;;0.22;;
15841;SDS011;8021;48.022;11.812;2023-06-26T00:28:12;0.20;;;0.20;;
15841;SDS011;8021;48.022;11.812;2023-06-26T00:30:40;0.20;;;0.20;;
15841;SDS011;8021;48.022;11.812;2023-06-26T00:33:07;0.30;;;0.30;;
15841;SDS011;8021;48.022;11.812;2023-06-26T00:35:35;0.20;;;0.20;;
15841;SDS011;8021;48.022;11.812;2023-06-26T00:38:03;0.20;;;0.20;;
15841;SDS011;8021;48.022;11.812;2023-06-26T00:40:30;0.20;;;0.20;;
15841;SDS011;8021;48.022;11.812;2023-06-26T00:42:58;0.20;;;0.20;;
15841;SDS011;8021;48.022;11.812;2023-06-26T00:45:27;0.20;;;0.20;;
15841;SDS011;8021;48.022;11.812;2023-06-26T00:48:09;0.20;;;0.20;;
15841;SDS011;8021;48.022;11.812;2023-06-26T00:50:38;0.20;;;0.20;;
15841;SDS011;8021;48.022;11.812;2023-06-26T00:53:06;0.20;;;0.20;;
15841;SDS011;8021;48.022;11.812;2023-06-26T00:55:33;0.20;;;0.20;;
15841;SDS011;8021;48.022;11.812;2023-06-26T00:58:01;0.20;;;0.20;;
15841;SDS011;8021;48.022;11.812;2023-06-26T01:00:30;0.22;;;0.22;;
15841;SDS011;8021;48.022;11.812;2023-06-26T01:02:57;0.20;;;0.17;;
15841;SDS011;8021;48.022;11.812;2023-06-26T01:05:28;0.20;;;0.20;;
15841;SDS011;8021;48.022;11.812;2023-06-26T01:07:56;0.30;;;0.17;;
15841;SDS011;8021;48.022;11.812;2023-06-26T01:10:24;0.25;;;0.25;;
15841;SDS011;8021;48.022;11.812;2023-06-26T01:12:53;0.20;;;0.20;;
15841;SDS011;8021;48.022;11.812;2023-06-26T01:15:21;0.20;;;0.20;;
15841;SDS011;8021;48.022;11.812;2023-06-26T01:17:51;0.20;;;0.10;;
15841;SDS011;8021;48.022;11.812;2023-06-26T01:20:19;0.20;;;0.20;;
15841;SDS011;8021;48.022;11.812;2023-06-26T01:22:48;0.20;;;0.20;;
15841;SDS011;8021;48.022;11.812;2023-06-26T01:25:21;0.20;;;0.20;;
15841;SDS011;8021;48.022;11.812;2023-06-26T01:27:52;0.20;;;0.20;;
15841;SDS011;8021;48.022;11.812;2023-06-26T01:30:22;0.20;;;0.15;;
15841;SDS011;8021;48.022;11.812;2023-06-26T01:32:50;0.20;;;0.20;;
15841;SDS011;8021;48.022;11.812;2023-06-26T01:35:18;0.30;;;0.20;;
15841;SDS011;8021;48.022;11.812;2023-06-26T01:37:46;0.20;;;0.17;;
15841;SDS011;8021;48.022;11.812;2023-06-26T01:40:13;0.20;;;0.10;;
15841;SDS011;8021;48.022;11.812;2023-06-26T01:42:41;0.20;;;0.13;;
15841;SDS011;8021;48.022;11.812;2023-06-26T01:45:12;0.20;;;0.20;;
15841;SDS011;8021;48.022;11.812;2023-06-26T01:47:43;0.20;;;0.20;;
15841;SDS011;8021;48.022;11.812;2023-06-26T01:50:12;0.20;;;0.20;;
15841;SDS011;8021;48.022;11.812;2023-06-26T01:52:41;0.20;;;0.20;;
15841;SDS011;8021;48.022;11.812;2023-06-26T01:55:12;0.20;;;0.20;;
15841;SDS011;8021;48.022;11.812;2023-06-26T01:57:42;0.20;;;0.17;;
15841;SDS011;8021;48.022;11.812;2023-06-26T02:00:13;0.20;;;0.20;;
15841;SDS011;8021;48.022;11.812;2023-06-26T02:02:45;0.20;;;0.20;;
15841;SDS011;8021;48.022;11.812;2023-06-26T02:05:13;0.20;;;0.20;;
15841;SDS011;8021;48.022;11.812;2023-06-26T02:07:41;0.20;;;0.20;;
15841;SDS011;8021;48.022;11.812;2023-06-26T02:10:10;0.20;;;0.20;;
15841;SDS011;8021;48.022;11.812;2023-06-26T02:12:38;0.20;;;0.20;;
15841;SDS011;8021;48.022;11.812;2023-06-26T02:15:06;0.20;;;0.20;;
15841;SDS011;8021;48.022;11.812;2023-06-26T02:17:35;0.20;;;0.20;;
15841;SDS011;8021;48.022;11.812;2023-06-26T02:20:03;0.20;;;0.20;;
15841;SDS011;8021;48.022;11.812;2023-06-26T02:22:31;0.20;;;0.20;;
15841;SDS011;8021;48.022;11.812;2023-06-26T02:24:59;0.25;;;0.25;;
15841;SDS011;8021;48.022;11.812;2023-06-26T02:27:26;0.20;;;0.20;;
15841;SDS011;8021;48.022;11.812;2023-06-26T02:29:54;0.22;;;0.20;;
15841;SDS011;8021;48.022;11.812;2023-06-26T02:32:21;0.20;;;0.20;;
15841;SDS011;8021;48.022;11.812;2023-06-26T02:34:50;0.22;;;0.22;;
15841;SDS011;8021;48.022;11.812;2023-06-26T02:37:18;0.20;;;0.20;;
15841;SDS011;8021;48.022;11.812;2023-06-26T02:39:46;0.20;;;0.20;;
15841;SDS011;8021;48.022;11.812;2023-06-26T02:42:14;0.30;;;0.20;;
15841;SDS011;8021;48.022;11.812;2023-06-26T02:44:41;0.20;;;0.13;;
15841;SDS011;8021;48.022;11.812;2023-06-26T02:47:09;0.20;;;0.20;;
15841;SDS011;8021;48.022;11.812;2023-06-26T02:49:40;0.20;;;0.20;;
15841;SDS011;8021;48.022;11.812;2023-06-26T02:52:09;0.20;;;0.20;;
15841;SDS011;8021;48.022;11.812;2023-06-26T02:54:37;0.20;;;0.20;;
15841;SDS011;8021;48.022;11.812;2023-06-26T02:57:05;0.20;;;0.20;;
15841;SDS011;8021;48.022;11.812;2023-06-26T02:59:33;0.20;;;0.20;;
15841;SDS011;8021;48.022;11.812;2023-06-26T03:02:01;0.20;;;0.15;;
15841;SDS011;8021;48.022;11.812;2023-06-26T03:04:34;0.20;;;0.13;;
15841;SDS011;8021;48.022;11.812;2023-06-26T03:07:04;0.20;;;0.20;;
15841;SDS011;8021;48.022;11.812;2023-06-26T03:09:34;0.20;;;0.20;;
15841;SDS011;8021;48.022;11.812;2023-06-26T03:12:02;0.20;;;0.20;;
15841;SDS011;8021;48.022;11.812;2023-06-26T03:14:31;0.20;;;0.20;;
15841;SDS011;8021;48.022;11.812;2023-06-26T03:17:00;0.30;;;0.30;;
15841;SDS011;8021;48.022;11.812;2023-06-26T03:19:31;0.20;;;0.20;;
15841;SDS011;8021;48.022;11.812;2023-06-26T03:22:20;0.20;;;0.20;;
15841;SDS011;8021;48.022;11.812;2023-06-26T03:24:51;0.20;;;0.10;;
15841;SDS011;8021;48.022;11.812;2023-06-26T03:27:19;0.20;;;0.20;;
15841;SDS011;8021;48.022;11.812;2023-06-26T03:29:48;0.30;;;0.20;;
15841;SDS011;8021;48.022;11.812;2023-06-26T03:32:17;0.20;;;0.20;;
15841;SDS011;8021;48.022;11.812;2023-06-26T03:34:44;0.20;;;0.20;;
15841;SDS011;8021;48.022;11.812;2023-06-26T03:37:12;0.20;;;0.20;;
15841;SDS011;8021;48.022;11.812;2023-06-26T03:39:40;0.30;;;0.20;;
15841;SDS011;8021;48.022;11.812;2023-06-26T03:42:09;0.17;;;0.17;;
15841;SDS011;8021;48.022;11.812;2023-06-26T03:44:37;0.20;;;0.20;;
15841;SDS011;8021;48.022;11.812;2023-06-26T03:47:04;0.20;;;0.20;;
15841;SDS011;8021;48.022;11.812;2023-06-26T03:49:32;0.10;;;0.10;;
15841;SDS011;8021;48.022;11.812;2023-06-26T03:51:59;0.20;;;0.20;;
15841;SDS011;8021;48.022;11.812;2023-06-26T03:54:27;0.10;;;0.10;;
15841;SDS011;8021;48.022;11.812;2023-06-26T03:56:54;0.10;;;0.10;;
15841;SDS011;8021;48.022;11.812;2023-06-26T03:59:23;0.10;;;0.10;;
15841;SDS011;8021;48.022;11.812;2023-06-26T04:01:51;0.20;;;0.20;;
15841;SDS011;8021;48.022;11.812;2023-06-26T04:04:19;0.10;;;0.10;;
15841;SDS011;8021;48.022;11.812;2023-06-26T04:06:47;0.10;;;0.10;;
15841;SDS011;8021;48.022;11.812;2023-06-26T04:09:14;0.10;;;0.10;;
15841;SDS011;8021;48.022;11.812;2023-06-26T04:11:43;0.10;;;0.10;;
15841;SDS011;8021;48.022;11.812;2023-06-26T04:14:10;0.10;;;0.10;;
15841;SDS011;8021;48.022;11.812;2023-06-26T04:16:40;0.00;;;0.00;;
15841;SDS011;8021;48.022;11.812;2023-06-26T04:19:08;0.00;;;0.00;;
15841;SDS011;8021;48.022;11.812;2023-06-26T04:21:36;0.10;;;0.10;;
15841;SDS011;8021;48.022;11.812;2023-06-26T04:24:04;0.00;;;0.00;;
15841;SDS011;8021;48.022;11.812;2023-06-26T04:26:31;0.00;;;0.00;;
15841;SDS011;8021;48.022;11.812;2023-06-26T04:28:59;0.00;;;0.00;;
15841;SDS011;8021;48.022;11.812;2023-06-26T04:31:27;0.00;;;0.00;;
15841;SDS011;8021;48.022;11.812;2023-06-26T04:33:56;0.00;;;0.00;;
15841;SDS011;8021;48.022;11.812;2023-06-26T04:36:25;0.00;;;0.00;;
15841;SDS011;8021;48.022;11.812;2023-06-26T04:38:54;0.00;;;0.00;;
15841;SDS011;8021;48.022;11.812;2023-06-26T04:41:23;0.00;;;0.00;;
15841;SDS011;8021;48.022;11.812;2023-06-26T04:43:50;0.00;;;0.00;;
15841;SDS011;8021;48.022;11.812;2023-06-26T04:46:17;0.00;;;0.00;;
15841;SDS011;8021;48.022;11.812;2023-06-26T04:48:45;0.00;;;0.00;;
15841;SDS011;8021;48.022;11.812;2023-06-26T04:51:14;0.00;;;0.00;;
15841;SDS011;8021;48.022;11.812;2023-06-26T04:53:42;0.00;;;0.00;;
15841;SDS011;8021;48.022;11.812;2023-06-26T04:56:09;0.00;;;0.00;;
15841;SDS011;8021;48.022;11.812;2023-06-26T04:58:37;0.00;;;0.00;;
15841;SDS011;8021;48.022;11.812;2023-06-26T05:01:05;0.00;;;0.00;;
15841;SDS011;8021;48.022;11.812;2023-06-26T05:03:33;0.00;;;0.00;;
15841;SDS011;8021;48.022;11.812;2023-06-26T05:06:02;0.00;;;0.00;;
15841;SDS011;8021;48.022;11.812;2023-06-26T05:08:36;0.00;;;0.00;;
15841;SDS011;8021;48.022;11.812;2023-06-26T05:11:03;0.00;;;0.00;;
15841;SDS011;8021;48.022;11.812;2023-06-26T05:13:31;0.00;;;0.00;;
15841;SDS011;8021;48.022;11.812;2023-06-26T05:15:58;0.00;;;0.00;;
15841;SDS011;8021;48.022;11.812;2023-06-26T05:18:26;0.00;;;0.00;;
15841;SDS011;8021;48.022;11.812;2023-06-26T05:20:53;0.00;;;0.00;;
15841;SDS011;8021;48.022;11.812;2023-06-26T05:23:21;0.00;;;0.00;;
15841;SDS011;8021;48.022;11.812;2023-06-26T05:25:52;0.00;;;0.00;;
15841;SDS011;8021;48.022;11.812;2023-06-26T05:28:20;0.00;;;0.00;;
15841;SDS011;8021;48.022;11.812;2023-06-26T05:30:49;0.00;;;0.00;;
15841;SDS011;8021;48.022;11.812;2023-06-26T05:33:17;0.00;;;0.00;;
15841;SDS011;8021;48.022;11.812;2023-06-26T05:35:45;0.00;;;0.00;;
15841;SDS011;8021;48.022;11.812;2023-06-26T05:38:13;0.00;;;0.00;;
15841;SDS011;8021;48.022;11.812;2023-06-26T05:40:41;0.00;;;0.00;;
15841;SDS011;8021;48.022;11.812;2023-06-26T05:43:10;0.00;;;0.00;;
15841;SDS011;8021;48.022;11.812;2023-06-26T05:45:37;0.00;;;0.00;;
15841;SDS011;8021;48.022;11.812;2023-06-26T05:48:05;0.00;;;0.00;;
15841;SDS011;8021;48.022;11.812;2023-06-26T05:50:33;0.00;;;0.00;;
15841;SDS011;8021;48.022;11.812;2023-06-26T05:53:01;0.00;;;0.00;;
15841;SDS011;8021;48.022;11.812;2023-06-26T05:55:29;0.00;;;0.00;;
15841;SDS011;8021;48.022;11.812;2023-06-26T05:57:57;0.00;;;0.00;;
15841;SDS011;8021;48.022;11.812;2023-06-26T06:00:27;0.00;;;0.00;;
15841;SDS011;8021;48.022;11.812;2023-06-26T06:02:55;0.00;;;0.00;;
15841;SDS011;8021;48.022;11.812;2023-06-26T06:05:23;0.00;;;0.00;;
15841;SDS011;8021;48.022;11.812;2023-06-26T06:07:50;0.00;;;0.00;;
15841;SDS011;8021;48.022;11.812;2023-06-26T06:10:18;0.00;;;0.00;;
15841;SDS011;8021;48.022;11.812;2023-06-26T06:12:45;0.00;;;0.00;;
15841;SDS011;8021;48.022;11.812;2023-06-26T06:15:13;0.00;;;0.00;;
15841;SDS011;8021;48.022;11.812;2023-06-26T06:17:42;0.00;;;0.00;;
15841;SDS011;8021;48.022;11.812;2023-06-26T06:20:10;0.00;;;0.00;;
15841;SDS011;8021;48.022;11.812;2023-06-26T06:22:37;0.00;;;0.00;;
15841;SDS011;8021;48.022;11.812;2023-06-26T06:25:05;0.00;;;0.00;;
15841;SDS011;8021;48.022;11.812;2023-06-26T06:27:33;0.00;;;0.00;;
15841;SDS011;8021;48.022;11.812;2023-06-26T06:30:00;0.00;;;0.00;;
15841;SDS011;8021;48.022;11.812;2023-06-26T06:32:28;0.00;;;0.00;;
15841;SDS011;8021;48.022;11.812;2023-06-26T06:34:56;0.00;;;0.00;;
15841;SDS011;8021;48.022;11.812;2023-06-26T06:37:24;0.00;;;0.00;;
15841;SDS011;8021;48.022;11.812;2023-06-26T06:39:52;0.00;;;0.00;;
15841;SDS011;8021;48.022;11.812;2023-06-26T06:42:20;0.00;;;0.00;;
15841;SDS011;8021;48.022;11.812;2023-06-26T06:44:47;0.00;;;0.00;;
15841;SDS011;8021;48.022;11.812;2023-06-26T06:47:15;0.00;;;0.00;;
15841;SDS011;8021;48.022;11.812;2023-06-26T06:49:42;0.00;;;0.00;;
15841;SDS011;8021;48.022;11.812;2023-06-26T06:52:11;0.00;;;0.00;;
15841;SDS011;8021;48.022;11.812;2023-06-26T06:54:50;0.00;;;0.00;;
15841;SDS011;8021;48.022;11.812;2023-06-26T06:57:18;0.00;;;0.00;;
15841;SDS011;8021;48.022;11.812;2023-06-26T06:59:45;0.00;;;0.00;;
15841;SDS011;8021;48.022;11.812;2023-06-26T07:02:13;0.00;;;0.00;;
15841;SDS011;8021;48.022;11.812;2023-06-26T07:04:41;0.00;;;0.00;;
15841;SDS011;8021;48.022;11.812;2023-06-26T07:07:08;0.00;;;0.00;;
15841;SDS011;8021;48.022;11.812;2023-06-26T07:09:37;0.00;;;0.00;;
15841;SDS011;8021;48.022;11.812;2023-06-26T07:12:05;0.00;;;0.00;;
15841;SDS011;8021;48.022;11.812;2023-06-26T07:14:33;0.00;;;0.00;;
15841;SDS011;8021;48.022;11.812;2023-06-26T07:17:00;0.00;;;0.00;;
15841;SDS011;8021;48.022;11.812;2023-06-26T07:19:28;0.00;;;0.00;;
15841;SDS011;8021;48.022;11.812;2023-06-26T07:21:55;0.00;;;0.00;;
15841;SDS011;8021;48.022;11.812;2023-06-26T07:24:23;0.00;;;0.00;;
15841;SDS011;8021;48.022;11.812;2023-06-26T07:26:52;0.00;;;0.00;;
15841;SDS011;8021;48.022;11.812;2023-06-26T07:29:19;0.00;;;0.00;;
15841;SDS011;8021;48.022;11.812;2023-06-26T07:31:47;0.00;;;0.00;;
15841;SDS011;8021;48.022;11.812;2023-06-26T07:34:15;0.00;;;0.00;;
15841;SDS011;8021;48.022;11.812;2023-06-26T07:36:42;0.00;;;0.00;;
15841;SDS011;8021;48.022;11.812;2023-06-26T07:39:10;0.00;;;0.00;;
15841;SDS011;8021;48.022;11.812;2023-06-26T07:41:43;0.00;;;0.00;;
15841;SDS011;8021;48.022;11.812;2023-06-26T07:44:12;0.00;;;0.00;;
15841;SDS011;8021;48.022;11.812;2023-06-26T07:46:40;0.00;;;0.00;;
15841;SDS011;8021;48.022;11.812;2023-06-26T07:49:08;0.00;;;0.00;;
15841;SDS011;8021;48.022;11.812;2023-06-26T07:51:35;0.00;;;0.00;;
15841;SDS011;8021;48.022;11.812;2023-06-26T07:54:03;0.00;;;0.00;;
15841;SDS011;8021;48.022;11.812;2023-06-26T07:56:30;0.00;;;0.00;;
15841;SDS011;8021;48.022;11.812;2023-06-26T07:58:58;0.00;;;0.00;;
15841;SDS011;8021;48.022;11.812;2023-06-26T08:01:28;0.00;;;0.00;;
15841;SDS011;8021;48.022;11.812;2023-06-26T08:03:55;0.00;;;0.00;;
15841;SDS011;8021;48.022;11.812;2023-06-26T08:06:23;0.00;;;0.00;;
15841;SDS011;8021;48.022;11.812;2023-06-26T08:08:51;0.00;;;0.00;;
15841;SDS011;8021;48.022;11.812;2023-06-26T08:11:18;0.00;;;0.00;;
15841;SDS011;8021;48.022;11.812;2023-06-26T08:13:46;0.00;;;0.00;;
15841;SDS011;8021;48.022;11.812;2023-06-26T08:16:13;0.00;;;0.00;;
15841;SDS011;8021;48.022;11.812;2023-06-26T08:18:42;0.00;;;0.00;;
15841;SDS011;8021;48.022;11.812;2023-06-26T08:21:10;0.00;;;0.00;;
15841;SDS011;8021;48.022;11.812;2023-06-26T08:23:37;0.00;;;0.00;;
15841;SDS011;8021;48.022;11.812;2023-06-26T08:26:05;0.00;;;0.00;;
15841;SDS011;8021;48.022;11.812;2023-06-26T08:28:32;0.00;;;0.00;;
15841;SDS011;8021;48.022;11.812;2023-06-26T08:31:01;0.00;;;0.00;;
15841;SDS011;8021;48.022;11.812;2023-06-26T08:33:28;0.00;;;0.00;;
15841;SDS011;8021;48.022;11.812;2023-06-26T08:35:57;0.00;;;0.00;;
15841;SDS011;8021;48.022;11.812;2023-06-26T08:38:24;0.00;;;0.00;;
15841;SDS011;8021;48.022;11.812;2023-06-26T08:40:52;0.00;;;0.00;;
15841;SDS011;8021;48.022;11.812;2023-06-26T08:43:20;0.00;;;0.00;;
15841;SDS011;8021;48.022;11.812;2023-06-26T08:45:48;0.00;;;0.00;;
15841;SDS011;8021;48.022;11.812;2023-06-26T08:48:17;0.00;;;0.00;;
15841;SDS011;8021;48.022;11.812;2023-06-26T08:50:45;0.00;;;0.00;;
15841;SDS011;8021;48.022;11.812;2023-06-26T08:53:18;0.00;;;0.00;;
15841;SDS011;8021;48.022;11.812;2023-06-26T08:55:48;0.00;;;0.00;;
15841;SDS011;8021;48.022;11.812;2023-06-26T08:58:16;0.00;;;0.00;;
15841;SDS011;8021;48.022;11.812;2023-06-26T09:00:44;0.00;;;0.00;;
15841;SDS011;8021;48.022;11.812;2023-06-26T09:03:11;0.00;;;0.00;;
15841;SDS011;8021;48.022;11.812;2023-06-26T09:05:40;0.00;;;0.00;;
15841;SDS011;8021;48.022;11.812;2023-06-26T09:08:08;0.00;;;0.00;;
15841;SDS011;8021;48.022;11.812;2023-06-26T09:10:37;0.00;;;0.00;;
15841;SDS011;8021;48.022;11.812;2023-06-26T09:13:05;0.00;;;0.00;;
15841;SDS011;8021;48.022;11.812;2023-06-26T09:15:50;0.00;;;0.00;;
15841;SDS011;8021;48.022;11.812;2023-06-26T09:18:20;0.00;;;0.00;;
15841;SDS011;8021;48.022;11.812;2023-06-26T09:20:48;0.00;;;0.00;;
15841;SDS011;8021;48.022;11.812;2023-06-26T09:23:15;0.00;;;0.00;;
15841;SDS011;8021;48.022;11.812;2023-06-26T09:25:46;0.00;;;0.00;;
15841;SDS011;8021;48.022;11.812;2023-06-26T09:28:14;0.00;;;0.00;;
15841;SDS011;8021;48.022;11.812;2023-06-26T09:30:42;0.00;;;0.00;;
15841;SDS011;8021;48.022;11.812;2023-06-26T09:33:15;0.00;;;0.00;;
15841;SDS011;8021;48.022;11.812;2023-06-26T09:35:43;0.00;;;0.00;;
15841;SDS011;8021;48.022;11.812;2023-06-26T09:38:11;0.00;;;0.00;;
15841;SDS011;8021;48.022;11.812;2023-06-26T09:40:39;0.00;;;0.00;;
15841;SDS011;8021;48.022;11.812;2023-06-26T09:43:09;0.00;;;0.00;;
15841;SDS011;8021;48.022;11.812;2023-06-26T09:45:36;0.00;;;0.00;;
15841;SDS011;8021;48.022;11.812;2023-06-26T09:48:04;0.00;;;0.00;;
15841;SDS011;8021;48.022;11.812;2023-06-26T09:50:34;0.00;;;0.00;;
15841;SDS011;8021;48.022;11.812;2023-06-26T09:53:06;0.00;;;0.00;;
15841;SDS011;8021;48.022;11.812;2023-06-26T09:55:34;0.00;;;0.00;;
15841;SDS011;8021;48.022;11.812;2023-06-26T09:58:02;0.00;;;0.00;;
15841;SDS011;8021;48.022;11.812;2023-06-26T10:00:31;0.00;;;0.00;;
15841;SDS011;8021;48.022;11.812;2023-06-26T10:02:59;0.00;;;0.00;;
15841;SDS011;8021;48.022;11.812;2023-06-26T10:05:27;0.00;;;0.00;;
15841;SDS011;8021;48.022;11.812;2023-06-26T10:07:55;0.00;;;0.00;;
15841;SDS011;8021;48.022;11.812;2023-06-26T10:10:25;0.00;;;0.00;;
15841;SDS011;8021;48.022;11.812;2023-06-26T10:12:54;0.00;;;0.00;;
15841;SDS011;8021;48.022;11.812;2023-06-26T10:15:22;0.00;;;0.00;;
15841;SDS011;8021;48.022;11.812;2023-06-26T10:17:51;0.00;;;0.00;;
15841;SDS011;8021;48.022;11.812;2023-06-26T10:20:21;0.00;;;0.00;;
15841;SDS011;8021;48.022;11.812;2023-06-26T10:22:49;0.00;;;0.00;;
15841;SDS011;8021;48.022;11.812;2023-06-26T10:25:18;0.00;;;0.00;;
15841;SDS011;8021;48.022;11.812;2023-06-26T10:27:46;0.00;;;0.00;;
15841;SDS011;8021;48.022;11.812;2023-06-26T10:30:16;0.00;;;0.00;;
15841;SDS011;8021;48.022;11.812;2023-06-26T10:32:45;0.00;;;0.00;;
15841;SDS011;8021;48.022;11.812;2023-06-26T10:35:15;0.00;;;0.00;;
15841;SDS011;8021;48.022;11.812;2023-06-26T10:37:43;0.00;;;0.00;;
15841;SDS011;8021;48.022;11.812;2023-06-26T10:40:11;0.00;;;0.00;;
15841;SDS011;8021;48.022;11.812;2023-06-26T10:42:39;0.00;;;0.00;;
15841;SDS011;8021;48.022;11.812;2023-06-26T10:45:10;0.00;;;0.00;;
15841;SDS011;8021;48.022;11.812;2023-06-26T10:47:39;0.00;;;0.00;;
15841;SDS011;8021;48.022;11.812;2023-06-26T10:50:22;0.00;;;0.00;;
15841;SDS011;8021;48.022;11.812;2023-06-26T10:53:09;0.00;;;0.00;;
15841;SDS011;8021;48.022;11.812;2023-06-26T10:55:37;0.00;;;0.00;;
15841;SDS011;8021;48.022;11.812;2023-06-26T10:58:07;0.00;;;0.00;;
15841;SDS011;8021;48.022;11.812;2023-06-26T11:00:59;0.00;;;0.00;;
15841;SDS011;8021;48.022;11.812;2023-06-26T11:03:41;0.00;;;0.00;;
15841;SDS011;8021;48.022;11.812;2023-06-26T11:06:12;0.00;;;0.00;;
15841;SDS011;8021;48.022;11.812;2023-06-26T11:08:46;0.00;;;0.00;;
15841;SDS011;8021;48.022;11.812;2023-06-26T11:11:14;0.00;;;0.00;;
15841;SDS011;8021;48.022;11.812;2023-06-26T11:13:42;0.00;;;0.00;;
15841;SDS011;8021;48.022;11.812;2023-06-26T11:16:10;0.00;;;0.00;;
15841;SDS011;8021;48.022;11.812;2023-06-26T11:18:38;0.00;;;0.00;;
15841;SDS011;8021;48.022;11.812;2023-06-26T11:21:06;0.00;;;0.00;;
15841;SDS011;8021;48.022;11.812;2023-06-26T11:23:36;0.00;;;0.00;;
15841;SDS011;8021;48.022;11.812;2023-06-26T11:26:12;0.00;;;0.00;;
15841;SDS011;8021;48.022;11.812;2023-06-26T11:28:45;0.00;;;0.00;;
15841;SDS011;8021;48.022;11.812;2023-06-26T11:31:23;0.00;;;0.00;;
15841;SDS011;8021;48.022;11.812;2023-06-26T11:33:51;0.00;;;0.00;;
15841;SDS011;8021;48.022;11.812;2023-06-26T11:36:18;0.00;;;0.00;;
15841;SDS011;8021;48.022;11.812;2023-06-26T11:38:51;0.00;;;0.00;;
15841;SDS011;8021;48.022;11.812;2023-06-26T11:41:19;0.00;;;0.00;;
15841;SDS011;8021;48.022;11.812;2023-06-26T11:43:47;0.00;;;0.00;;
15841;SDS011;8021;48.022;11.812;2023-06-26T11:46:16;0.00;;;0.00;;
15841;SDS011;8021;48.022;11.812;2023-06-26T11:48:43;0.00;;;0.00;;
15841;SDS011;8021;48.022;11.812;2023-06-26T11:51:12;0.00;;;0.00;;
15841;SDS011;8021;48.022;11.812;2023-06-26T11:53:40;0.00;;;0.00;;
15841;SDS011;8021;48.022;11.812;2023-06-26T11:56:10;0.00;;;0.00;;
15841;SDS011;8021;48.022;11.812;2023-06-26T12:01:20;0.00;;;0.00;;
15841;SDS011;8021;48.022;11.812;2023-06-26T12:03:49;0.00;;;0.00;;
15841;SDS011;8021;48.022;11.812;2023-06-26T12:06:17;0.00;;;0.00;;
15841;SDS011;8021;48.022;11.812;2023-06-26T12:08:44;0.00;;;0.00;;
15841;SDS011;8021;48.022;11.812;2023-06-26T12:11:13;0.00;;;0.00;;
15841;SDS011;8021;48.022;11.812;2023-06-26T12:13:41;0.00;;;0.00;;
15841;SDS011;8021;48.022;11.812;2023-06-26T12:16:09;0.00;;;0.00;;
15841;SDS011;8021;48.022;11.812;2023-06-26T12:18:37;0.00;;;0.00;;
15841;SDS011;8021;48.022;11.812;2023-06-26T12:21:06;0.00;;;0.00;;
15841;SDS011;8021;48.022;11.812;2023-06-26T12:23:38;0.00;;;0.00;;
15841;SDS011;8021;48.022;11.812;2023-06-26T12:28:49;0.00;;;0.00;;
15841;SDS011;8021;48.022;11.812;2023-06-26T12:31:17;0.00;;;0.00;;
15841;SDS011;8021;48.022;11.812;2023-06-26T12:33:47;0.00;;;0.00;;
15841;SDS011;8021;48.022;11.812;2023-06-26T12:36:15;0.00;;;0.00;;
15841;SDS011;8021;48.022;11.812;2023-06-26T12:38:44;0.00;;;0.00;;
15841;SDS011;8021;48.022;11.812;2023-06-26T12:41:12;0.00;;;0.00;;
15841;SDS011;8021;48.022;11.812;2023-06-26T12:43:40;0.00;;;0.00;;
15841;SDS011;8021;48.022;11.812;2023-06-26T12:46:09;0.00;;;0.00;;
15841;SDS011;8021;48.022;11.812;2023-06-26T12:48:37;0.00;;;0.00;;
15841;SDS011;8021;48.022;11.812;2023-06-26T12:51:07;0.00;;;0.00;;
15841;SDS011;8021;48.022;11.812;2023-06-26T12:53:35;0.00;;;0.00;;
15841;SDS011;8021;48.022;11.812;2023-06-26T12:56:03;0.00;;;0.00;;
15841;SDS011;8021;48.022;11.812;2023-06-26T12:58:30;0.00;;;0.00;;
15841;SDS011;8021;48.022;11.812;2023-06-26T13:00:58;0.00;;;0.00;;
15841;SDS011;8021;48.022;11.812;2023-06-26T13:03:27;0.00;;;0.00;;
15841;SDS011;8021;48.022;11.812;2023-06-26T13:05:56;0.00;;;0.00;;
15841;SDS011;8021;48.022;11.812;2023-06-26T13:08:23;0.00;;;0.00;;
15841;SDS011;8021;48.022;11.812;2023-06-26T13:10:51;0.00;;;0.00;;
15841;SDS011;8021;48.022;11.812;2023-06-26T13:13:18;0.00;;;0.00;;
15841;SDS011;8021;48.022;11.812;2023-06-26T13:15:46;0.00;;;0.00;;
15841;SDS011;8021;48.022;11.812;2023-06-26T13:18:13;0.00;;;0.00;;
15841;SDS011;8021;48.022;11.812;2023-06-26T13:20:42;0.00;;;0.00;;
15841;SDS011;8021;48.022;11.812;2023-06-26T13:23:10;0.00;;;0.00;;
15841;SDS011;8021;48.022;11.812;2023-06-26T13:25:37;0.00;;;0.00;;
15841;SDS011;8021;48.022;11.812;2023-06-26T13:28:05;0.00;;;0.00;;
15841;SDS011;8021;48.022;11.812;2023-06-26T13:30:32;0.00;;;0.00;;
15841;SDS011;8021;48.022;11.812;2023-06-26T13:33:00;0.00;;;0.00;;
15841;SDS011;8021;48.022;11.812;2023-06-26T13:35:28;0.00;;;0.00;;
15841;SDS011;8021;48.022;11.812;2023-06-26T13:37:56;0.00;;;0.00;;
15841;SDS011;8021;48.022;11.812;2023-06-26T13:40:24;0.00;;;0.00;;
15841;SDS011;8021;48.022;11.812;2023-06-26T13:42:51;0.00;;;0.00;;
15841;SDS011;8021;48.022;11.812;2023-06-26T13:45:19;0.00;;;0.00;;
15841;SDS011;8021;48.022;11.812;2023-06-26T13:47:57;0.00;;;0.00;;
15841;SDS011;8021;48.022;11.812;2023-06-26T13:50:24;0.00;;;0.00;;
15841;SDS011;8021;48.022;11.812;2023-06-26T13:53:04;0.00;;;0.00;;
15841;SDS011;8021;48.022;11.812;2023-06-26T13:55:32;0.00;;;0.00;;
15841;SDS011;8021;48.022;11.812;2023-06-26T13:58:00;0.00;;;0.00;;
15841;SDS011;8021;48.022;11.812;2023-06-26T14:00:31;0.00;;;0.00;;
15841;SDS011;8021;48.022;11.812;2023-06-26T14:02:59;0.00;;;0.00;;
15841;SDS011;8021;48.022;11.812;2023-06-26T14:05:27;0.00;;;0.00;;
15841;SDS011;8021;48.022;11.812;2023-06-26T14:08:02;0.00;;;0.00;;
15841;SDS011;8021;48.022;11.812;2023-06-26T14:10:31;0.00;;;0.00;;
15841;SDS011;8021;48.022;11.812;2023-06-26T14:13:00;0.00;;;0.00;;
15841;SDS011;8021;48.022;11.812;2023-06-26T14:15:29;0.00;;;0.00;;
15841;SDS011;8021;48.022;11.812;2023-06-26T14:17:57;0.00;;;0.00;;
15841;SDS011;8021;48.022;11.812;2023-06-26T14:20:25;0.00;;;0.00;;
15841;SDS011;8021;48.022;11.812;2023-06-26T14:22:54;0.00;;;0.00;;
15841;SDS011;8021;48.022;11.812;2023-06-26T14:25:21;0.00;;;0.00;;
15841;SDS011;8021;48.022;11.812;2023-06-26T14:27:50;0.00;;;0.00;;
15841;SDS011;8021;48.022;11.812;2023-06-26T14:30:17;0.00;;;0.00;;
15841;SDS011;8021;48.022;11.812;2023-06-26T14:32:46;0.00;;;0.00;;
15841;SDS011;8021;48.022;11.812;2023-06-26T14:35:13;0.00;;;0.00;;
15841;SDS011;8021;48.022;11.812;2023-06-26T14:37:41;0.00;;;0.00;;
15841;SDS011;8021;48.022;11.812;2023-06-26T14:40:10;0.00;;;0.00;;
15841;SDS011;8021;48.022;11.812;2023-06-26T14:42:38;0.00;;;0.00;;
15841;SDS011;8021;48.022;11.812;2023-06-26T14:45:08;0.00;;;0.00;;
15841;SDS011;8021;48.022;11.812;2023-06-26T14:47:36;0.00;;;0.00;;
15841;SDS011;8021;48.022;11.812;2023-06-26T14:50:04;0.00;;;0.00;;
15841;SDS011;8021;48.022;11.812;2023-06-26T14:52:32;0.00;;;0.00;;
15841;SDS011;8021;48.022;11.812;2023-06-26T14:54:59;0.00;;;0.00;;
15841;SDS011;8021;48.022;11.812;2023-06-26T14:57:29;0.00;;;0.00;;
15841;SDS011;8021;48.022;11.812;2023-06-26T14:59:56;0.00;;;0.00;;
15841;SDS011;8021;48.022;11.812;2023-06-26T15:02:25;0.00;;;0.00;;